sensor_id;sensor_type;location;lat;lon;timestamp;temperature;humidity
19348;DHT22;9810;52.480;9.806;2023-02-12T00:00:11;8.20;99.90
19348;DHT22;9810;52.480;9.806;2023-02-12T00:02:40;8.10;99.90
19348;DHT22;9810;52.480;9.806;2023-02-12T00:05:07;7.90;99.90
19348;DHT22;9810;52.480;9.806;2023-02-12T00:07:36;7.90;99.90
19348;DHT22;9810;52.480;9.806;2023-02-12T00:10:04;7.90;99.90
19348;DHT22;9810;52.480;9.806;2023-02-12T00:12:31;7.90;99.90
19348;DHT22;9810;52.480;9.806;2023-02-12T00:14:59;7.90;99.90
19348;DHT22;9810;52.480;9.806;2023-02-12T00:17:26;7.90;99.90
19348;DHT22;9810;52.480;9.806;2023-02-12T00:19:54;8.00;99.90
19348;DHT22;9810;52.480;9.806;2023-02-12T00:22:21;8.00;99.90
19348;DHT22;9810;52.480;9.806;2023-02-12T00:24:50;7.90;99.90
19348;DHT22;9810;52.480;9.806;2023-02-12T00:27:17;7.90;99.90
19348;DHT22;9810;52.480;9.806;2023-02-12T00:29:44;7.90;99.90
19348;DHT22;9810;52.480;9.806;2023-02-12T00:32:12;7.80;99.90
19348;DHT22;9810;52.480;9.806;2023-02-12T00:34:45;7.80;99.90
19348;DHT22;9810;52.480;9.806;2023-02-12T00:37:13;7.80;99.90
19348;DHT22;9810;52.480;9.806;2023-02-12T00:39:41;7.90;99.90
19348;DHT22;9810;52.480;9.806;2023-02-12T00:42:10;7.90;99.90
19348;DHT22;9810;52.480;9.806;2023-02-12T00:44:38;7.90;99.90
19348;DHT22;9810;52.480;9.806;2023-02-12T00:47:05;7.80;99.90
19348;DHT22;9810;52.480;9.806;2023-02-12T00:49:32;7.90;99.90
19348;DHT22;9810;52.480;9.806;2023-02-12T00:52:00;7.70;99.90
19348;DHT22;9810;52.480;9.806;2023-02-12T00:54:27;7.80;99.90
19348;DHT22;9810;52.480;9.806;2023-02-12T00:56:55;7.70;99.90
19348;DHT22;9810;52.480;9.806;2023-02-12T00:59:25;7.60;99.90
19348;DHT22;9810;52.480;9.806;2023-02-12T01:01:54;7.60;99.90
19348;DHT22;9810;52.480;9.806;2023-02-12T01:04:21;7.80;99.90
19348;DHT22;9810;52.480;9.806;2023-02-12T01:06:48;7.80;99.90
19348;DHT22;9810;52.480;9.806;2023-02-12T01:09:16;7.80;99.90
19348;DHT22;9810;52.480;9.806;2023-02-12T01:11:43;7.80;99.90
19348;DHT22;9810;52.480;9.806;2023-02-12T01:14:11;7.80;99.90
19348;DHT22;9810;52.480;9.806;2023-02-12T01:16:40;7.70;99.90
19348;DHT22;9810;52.480;9.806;2023-02-12T01:19:09;7.60;99.90
19348;DHT22;9810;52.480;9.806;2023-02-12T01:21:37;7.60;99.90
19348;DHT22;9810;52.480;9.806;2023-02-12T01:24:05;7.60;99.90
19348;DHT22;9810;52.480;9.806;2023-02-12T01:26:32;7.60;99.90
19348;DHT22;9810;52.480;9.806;2023-02-12T01:29:02;7.60;99.90
19348;DHT22;9810;52.480;9.806;2023-02-12T01:31:32;7.60;99.90
19348;DHT22;9810;52.480;9.806;2023-02-12T01:34:01;7.70;99.90
19348;DHT22;9810;52.480;9.806;2023-02-12T01:36:30;7.70;99.90
19348;DHT22;9810;52.480;9.806;2023-02-12T01:38:57;7.60;99.90
19348;DHT22;9810;52.480;9.806;2023-02-12T01:41:29;7.50;99.90
19348;DHT22;9810;52.480;9.806;2023-02-12T01:44:12;7.60;99.90
19348;DHT22;9810;52.480;9.806;2023-02-12T01:46:41;7.50;99.90
19348;DHT22;9810;52.480;9.806;2023-02-12T01:49:13;7.50;99.90
19348;DHT22;9810;52.480;9.806;2023-02-12T01:51:41;7.60;99.90
19348;DHT22;9810;52.480;9.806;2023-02-12T01:54:11;7.60;99.90
19348;DHT22;9810;52.480;9.806;2023-02-12T01:56:41;7.70;99.90
19348;DHT22;9810;52.480;9.806;2023-02-12T01:59:09;7.60;99.90
19348;DHT22;9810;52.480;9.806;2023-02-12T02:01:38;7.60;99.90
19348;DHT22;9810;52.480;9.806;2023-02-12T02:04:08;7.50;99.90
19348;DHT22;9810;52.480;9.806;2023-02-12T02:06:43;7.50;99.90
19348;DHT22;9810;52.480;9.806;2023-02-12T02:09:13;7.50;99.90
19348;DHT22;9810;52.480;9.806;2023-02-12T02:11:40;7.70;99.90
19348;DHT22;9810;52.480;9.806;2023-02-12T02:14:25;7.70;99.90
19348;DHT22;9810;52.480;9.806;2023-02-12T02:17:15;7.60;99.90
19348;DHT22;9810;52.480;9.806;2023-02-12T02:22:58;7.60;99.90
19348;DHT22;9810;52.480;9.806;2023-02-12T02:25:56;7.50;99.90
19348;DHT22;9810;52.480;9.806;2023-02-12T02:28:46;7.50;99.90
19348;DHT22;9810;52.480;9.806;2023-02-12T02:31:25;7.50;99.90
19348;DHT22;9810;52.480;9.806;2023-02-12T02:34:00;7.50;99.90
19348;DHT22;9810;52.480;9.806;2023-02-12T02:36:37;7.40;99.90
19348;DHT22;9810;52.480;9.806;2023-02-12T02:39:09;7.50;99.90
19348;DHT22;9810;52.480;9.806;2023-02-12T02:41:45;7.60;99.90
19348;DHT22;9810;52.480;9.806;2023-02-12T02:44:18;7.60;99.90
19348;DHT22;9810;52.480;9.806;2023-02-12T02:46:51;7.50;99.90
19348;DHT22;9810;52.480;9.806;2023-02-12T02:49:23;7.60;99.90
19348;DHT22;9810;52.480;9.806;2023-02-12T02:51:54;7.50;99.90
19348;DHT22;9810;52.480;9.806;2023-02-12T02:54:26;7.40;99.90
19348;DHT22;9810;52.480;9.806;2023-02-12T02:57:08;7.50;99.90
19348;DHT22;9810;52.480;9.806;2023-02-12T02:59:41;7.40;99.90
19348;DHT22;9810;52.480;9.806;2023-02-12T03:02:15;7.40;99.90
19348;DHT22;9810;52.480;9.806;2023-02-12T03:04:45;7.50;99.90
19348;DHT22;9810;52.480;9.806;2023-02-12T03:07:17;7.50;99.90
19348;DHT22;9810;52.480;9.806;2023-02-12T03:09:49;7.50;99.90
19348;DHT22;9810;52.480;9.806;2023-02-12T03:12:23;7.40;99.90
19348;DHT22;9810;52.480;9.806;2023-02-12T03:14:56;7.30;99.90
19348;DHT22;9810;52.480;9.806;2023-02-12T03:17:32;7.30;99.90
19348;DHT22;9810;52.480;9.806;2023-02-12T03:20:03;7.30;99.90
19348;DHT22;9810;52.480;9.806;2023-02-12T03:22:34;7.40;99.90
19348;DHT22;9810;52.480;9.806;2023-02-12T03:25:08;7.30;99.90
19348;DHT22;9810;52.480;9.806;2023-02-12T03:27:41;7.40;99.90
19348;DHT22;9810;52.480;9.806;2023-02-12T03:30:11;7.40;99.90
19348;DHT22;9810;52.480;9.806;2023-02-12T03:32:47;7.30;99.90
19348;DHT22;9810;52.480;9.806;2023-02-12T03:35:20;7.30;99.90
19348;DHT22;9810;52.480;9.806;2023-02-12T03:37:54;7.30;99.90
19348;DHT22;9810;52.480;9.806;2023-02-12T03:40:28;7.30;99.90
19348;DHT22;9810;52.480;9.806;2023-02-12T03:42:59;7.20;99.90
19348;DHT22;9810;52.480;9.806;2023-02-12T03:45:37;7.20;99.90
19348;DHT22;9810;52.480;9.806;2023-02-12T03:48:12;7.20;99.90
19348;DHT22;9810;52.480;9.806;2023-02-12T03:50:46;7.20;99.90
19348;DHT22;9810;52.480;9.806;2023-02-12T03:53:14;7.20;99.90
19348;DHT22;9810;52.480;9.806;2023-02-12T03:55:43;7.20;99.90
19348;DHT22;9810;52.480;9.806;2023-02-12T03:58:17;7.30;99.90
19348;DHT22;9810;52.480;9.806;2023-02-12T04:00:45;7.20;99.90
19348;DHT22;9810;52.480;9.806;2023-02-12T04:03:14;7.20;99.90
19348;DHT22;9810;52.480;9.806;2023-02-12T04:05:41;7.20;99.90
19348;DHT22;9810;52.480;9.806;2023-02-12T04:08:11;7.20;99.90
19348;DHT22;9810;52.480;9.806;2023-02-12T04:10:47;7.20;99.90
19348;DHT22;9810;52.480;9.806;2023-02-12T04:13:25;7.20;99.90
19348;DHT22;9810;52.480;9.806;2023-02-12T04:16:06;7.20;99.90
19348;DHT22;9810;52.480;9.806;2023-02-12T04:18:41;7.20;99.90
19348;DHT22;9810;52.480;9.806;2023-02-12T04:21:15;7.20;99.90
19348;DHT22;9810;52.480;9.806;2023-02-12T04:23:52;7.30;99.90
19348;DHT22;9810;52.480;9.806;2023-02-12T04:26:32;7.20;99.90
19348;DHT22;9810;52.480;9.806;2023-02-12T04:29:10;7.30;99.90
19348;DHT22;9810;52.480;9.806;2023-02-12T04:31:46;7.20;99.90
19348;DHT22;9810;52.480;9.806;2023-02-12T04:34:22;7.20;99.90
19348;DHT22;9810;52.480;9.806;2023-02-12T04:36:56;7.20;99.90
19348;DHT22;9810;52.480;9.806;2023-02-12T04:39:27;7.10;99.90
19348;DHT22;9810;52.480;9.806;2023-02-12T04:41:57;7.20;99.90
19348;DHT22;9810;52.480;9.806;2023-02-12T04:44:26;7.20;99.90
19348;DHT22;9810;52.480;9.806;2023-02-12T04:46:54;7.20;99.90
19348;DHT22;9810;52.480;9.806;2023-02-12T04:49:23;7.20;99.90
19348;DHT22;9810;52.480;9.806;2023-02-12T04:51:51;7.20;99.90
19348;DHT22;9810;52.480;9.806;2023-02-12T04:54:19;7.10;99.90
19348;DHT22;9810;52.480;9.806;2023-02-12T04:56:48;7.10;99.90
19348;DHT22;9810;52.480;9.806;2023-02-12T04:59:16;7.10;99.90
19348;DHT22;9810;52.480;9.806;2023-02-12T05:01:43;7.10;99.90
19348;DHT22;9810;52.480;9.806;2023-02-12T05:04:14;7.10;99.90
19348;DHT22;9810;52.480;9.806;2023-02-12T05:06:44;7.10;99.90
19348;DHT22;9810;52.480;9.806;2023-02-12T05:09:16;7.00;99.90
19348;DHT22;9810;52.480;9.806;2023-02-12T05:11:44;7.00;99.90
19348;DHT22;9810;52.480;9.806;2023-02-12T05:14:14;7.00;99.90
19348;DHT22;9810;52.480;9.806;2023-02-12T05:16:42;7.10;99.90
19348;DHT22;9810;52.480;9.806;2023-02-12T05:19:09;7.00;99.90
19348;DHT22;9810;52.480;9.806;2023-02-12T05:21:37;7.10;99.90
19348;DHT22;9810;52.480;9.806;2023-02-12T05:24:07;7.10;99.90
19348;DHT22;9810;52.480;9.806;2023-02-12T05:26:35;7.10;99.90
19348;DHT22;9810;52.480;9.806;2023-02-12T05:29:02;7.10;99.90
19348;DHT22;9810;52.480;9.806;2023-02-12T05:31:30;7.00;99.90
19348;DHT22;9810;52.480;9.806;2023-02-12T05:33:57;7.00;99.90
19348;DHT22;9810;52.480;9.806;2023-02-12T05:36:25;7.00;99.90
19348;DHT22;9810;52.480;9.806;2023-02-12T05:38:56;7.00;99.90
19348;DHT22;9810;52.480;9.806;2023-02-12T05:41:25;7.00;99.90
19348;DHT22;9810;52.480;9.806;2023-02-12T05:43:53;7.00;99.90
19348;DHT22;9810;52.480;9.806;2023-02-12T05:46:21;7.10;99.90
19348;DHT22;9810;52.480;9.806;2023-02-12T05:48:48;7.20;99.90
19348;DHT22;9810;52.480;9.806;2023-02-12T05:51:18;7.40;99.90
19348;DHT22;9810;52.480;9.806;2023-02-12T05:53:47;7.40;99.90
19348;DHT22;9810;52.480;9.806;2023-02-12T05:56:16;7.50;99.90
19348;DHT22;9810;52.480;9.806;2023-02-12T05:58:46;7.60;99.90
19348;DHT22;9810;52.480;9.806;2023-02-12T06:01:16;7.70;99.90
19348;DHT22;9810;52.480;9.806;2023-02-12T06:03:43;7.60;99.90
19348;DHT22;9810;52.480;9.806;2023-02-12T06:06:11;7.50;99.90
19348;DHT22;9810;52.480;9.806;2023-02-12T06:08:38;7.60;99.90
19348;DHT22;9810;52.480;9.806;2023-02-12T06:11:09;7.70;99.90
19348;DHT22;9810;52.480;9.806;2023-02-12T06:13:36;7.70;99.90
19348;DHT22;9810;52.480;9.806;2023-02-12T06:16:16;7.80;99.90
19348;DHT22;9810;52.480;9.806;2023-02-12T06:18:43;7.80;99.90
19348;DHT22;9810;52.480;9.806;2023-02-12T06:21:10;7.80;99.90
19348;DHT22;9810;52.480;9.806;2023-02-12T06:23:38;7.80;99.90
19348;DHT22;9810;52.480;9.806;2023-02-12T06:26:06;7.70;99.90
19348;DHT22;9810;52.480;9.806;2023-02-12T06:28:33;7.80;99.90
19348;DHT22;9810;52.480;9.806;2023-02-12T06:31:00;7.80;99.90
19348;DHT22;9810;52.480;9.806;2023-02-12T06:33:29;7.70;99.90
19348;DHT22;9810;52.480;9.806;2023-02-12T06:35:57;7.70;99.90
19348;DHT22;9810;52.480;9.806;2023-02-12T06:38:24;7.70;99.90
19348;DHT22;9810;52.480;9.806;2023-02-12T06:40:52;7.40;99.90
19348;DHT22;9810;52.480;9.806;2023-02-12T06:43:19;7.50;99.90
19348;DHT22;9810;52.480;9.806;2023-02-12T06:45:47;7.60;99.90
19348;DHT22;9810;52.480;9.806;2023-02-12T06:48:14;7.60;99.90
19348;DHT22;9810;52.480;9.806;2023-02-12T06:50:43;7.30;99.90
19348;DHT22;9810;52.480;9.806;2023-02-12T06:53:10;7.10;99.90
19348;DHT22;9810;52.480;9.806;2023-02-12T06:55:37;7.30;99.90
19348;DHT22;9810;52.480;9.806;2023-02-12T06:58:04;7.30;99.90
19348;DHT22;9810;52.480;9.806;2023-02-12T07:00:32;7.30;99.90
19348;DHT22;9810;52.480;9.806;2023-02-12T07:03:00;7.40;99.90
19348;DHT22;9810;52.480;9.806;2023-02-12T07:05:27;7.40;99.90
19348;DHT22;9810;52.480;9.806;2023-02-12T07:07:56;7.50;99.90
19348;DHT22;9810;52.480;9.806;2023-02-12T07:10:23;7.50;99.90
19348;DHT22;9810;52.480;9.806;2023-02-12T07:12:50;7.50;99.90
19348;DHT22;9810;52.480;9.806;2023-02-12T07:15:18;7.50;99.90
19348;DHT22;9810;52.480;9.806;2023-02-12T07:17:45;7.60;99.90
19348;DHT22;9810;52.480;9.806;2023-02-12T07:20:15;7.60;99.90
19348;DHT22;9810;52.480;9.806;2023-02-12T07:22:43;7.70;99.90
19348;DHT22;9810;52.480;9.806;2023-02-12T07:25:13;7.60;99.90
19348;DHT22;9810;52.480;9.806;2023-02-12T07:27:41;7.60;99.90
19348;DHT22;9810;52.480;9.806;2023-02-12T07:30:09;7.60;99.90
19348;DHT22;9810;52.480;9.806;2023-02-12T07:32:36;7.60;99.90
19348;DHT22;9810;52.480;9.806;2023-02-12T07:35:04;7.50;99.90
19348;DHT22;9810;52.480;9.806;2023-02-12T07:37:32;7.60;99.90
19348;DHT22;9810;52.480;9.806;2023-02-12T07:40:00;7.70;99.90
19348;DHT22;9810;52.480;9.806;2023-02-12T07:42:29;7.60;99.90
19348;DHT22;9810;52.480;9.806;2023-02-12T07:44:55;7.70;99.90
19348;DHT22;9810;52.480;9.806;2023-02-12T07:47:23;7.70;99.90
19348;DHT22;9810;52.480;9.806;2023-02-12T07:49:50;7.70;99.90
19348;DHT22;9810;52.480;9.806;2023-02-12T07:52:18;7.80;99.90
19348;DHT22;9810;52.480;9.806;2023-02-12T07:54:46;7.80;99.90
19348;DHT22;9810;52.480;9.806;2023-02-12T07:57:13;7.70;99.90
19348;DHT22;9810;52.480;9.806;2023-02-12T07:59:42;7.70;99.90
19348;DHT22;9810;52.480;9.806;2023-02-12T08:02:10;7.60;99.90
19348;DHT22;9810;52.480;9.806;2023-02-12T08:04:37;7.70;99.90
19348;DHT22;9810;52.480;9.806;2023-02-12T08:07:05;7.80;99.90
19348;DHT22;9810;52.480;9.806;2023-02-12T08:09:32;7.70;99.90
19348;DHT22;9810;52.480;9.806;2023-02-12T08:11:59;7.80;99.90
19348;DHT22;9810;52.480;9.806;2023-02-12T08:14:27;7.90;99.90
19348;DHT22;9810;52.480;9.806;2023-02-12T08:16:56;8.00;99.90
19348;DHT22;9810;52.480;9.806;2023-02-12T08:19:23;8.00;99.90
19348;DHT22;9810;52.480;9.806;2023-02-12T08:21:51;8.00;99.90
19348;DHT22;9810;52.480;9.806;2023-02-12T08:24:19;8.00;99.90
19348;DHT22;9810;52.480;9.806;2023-02-12T08:26:47;7.90;99.90
19348;DHT22;9810;52.480;9.806;2023-02-12T08:29:16;8.00;99.90
19348;DHT22;9810;52.480;9.806;2023-02-12T08:31:45;8.00;99.90
19348;DHT22;9810;52.480;9.806;2023-02-12T08:34:17;8.00;99.90
19348;DHT22;9810;52.480;9.806;2023-02-12T08:36:45;7.90;99.90
19348;DHT22;9810;52.480;9.806;2023-02-12T08:39:13;7.90;99.90
19348;DHT22;9810;52.480;9.806;2023-02-12T08:41:41;8.00;99.90
19348;DHT22;9810;52.480;9.806;2023-02-12T08:44:09;7.90;99.90
19348;DHT22;9810;52.480;9.806;2023-02-12T08:46:39;7.90;99.90
19348;DHT22;9810;52.480;9.806;2023-02-12T08:49:10;7.90;99.90
19348;DHT22;9810;52.480;9.806;2023-02-12T08:51:42;8.00;99.90
19348;DHT22;9810;52.480;9.806;2023-02-12T08:54:11;7.90;99.90
19348;DHT22;9810;52.480;9.806;2023-02-12T08:56:39;8.00;99.90
19348;DHT22;9810;52.480;9.806;2023-02-12T08:59:07;7.90;99.90
19348;DHT22;9810;52.480;9.806;2023-02-12T09:01:37;8.00;99.90
19348;DHT22;9810;52.480;9.806;2023-02-12T09:04:06;7.90;99.90
19348;DHT22;9810;52.480;9.806;2023-02-12T09:06:34;7.80;99.90
19348;DHT22;9810;52.480;9.806;2023-02-12T09:09:03;8.00;99.90
19348;DHT22;9810;52.480;9.806;2023-02-12T09:11:33;8.00;99.90
19348;DHT22;9810;52.480;9.806;2023-02-12T09:14:02;8.10;99.90
19348;DHT22;9810;52.480;9.806;2023-02-12T09:16:32;8.10;99.90
19348;DHT22;9810;52.480;9.806;2023-02-12T09:18:59;8.20;99.90
19348;DHT22;9810;52.480;9.806;2023-02-12T09:21:26;8.20;99.90
19348;DHT22;9810;52.480;9.806;2023-02-12T09:23:54;8.20;99.90
19348;DHT22;9810;52.480;9.806;2023-02-12T09:26:24;8.30;99.90
19348;DHT22;9810;52.480;9.806;2023-02-12T09:28:52;8.40;99.90
19348;DHT22;9810;52.480;9.806;2023-02-12T09:31:23;8.30;99.90
19348;DHT22;9810;52.480;9.806;2023-02-12T09:33:53;8.30;99.90
19348;DHT22;9810;52.480;9.806;2023-02-12T09:36:20;8.50;99.90
19348;DHT22;9810;52.480;9.806;2023-02-12T09:38:48;8.50;99.90
19348;DHT22;9810;52.480;9.806;2023-02-12T09:41:36;8.50;99.90
19348;DHT22;9810;52.480;9.806;2023-02-12T09:44:14;8.40;99.90
19348;DHT22;9810;52.480;9.806;2023-02-12T09:46:48;8.40;99.90
19348;DHT22;9810;52.480;9.806;2023-02-12T09:49:25;8.30;99.90
19348;DHT22;9810;52.480;9.806;2023-02-12T09:52:03;8.20;99.90
19348;DHT22;9810;52.480;9.806;2023-02-12T09:54:36;8.20;99.90
19348;DHT22;9810;52.480;9.806;2023-02-12T09:57:15;8.20;99.90
19348;DHT22;9810;52.480;9.806;2023-02-12T09:59:46;8.50;99.90
19348;DHT22;9810;52.480;9.806;2023-02-12T10:02:18;8.60;99.90
19348;DHT22;9810;52.480;9.806;2023-02-12T10:04:47;8.60;99.90
19348;DHT22;9810;52.480;9.806;2023-02-12T10:07:23;8.50;99.90
19348;DHT22;9810;52.480;9.806;2023-02-12T10:10:21;8.50;99.90
19348;DHT22;9810;52.480;9.806;2023-02-12T10:12:59;8.30;99.90
19348;DHT22;9810;52.480;9.806;2023-02-12T10:15:34;8.30;99.90
19348;DHT22;9810;52.480;9.806;2023-02-12T10:18:24;8.10;99.90
19348;DHT22;9810;52.480;9.806;2023-02-12T10:21:08;8.30;99.90
19348;DHT22;9810;52.480;9.806;2023-02-12T10:23:59;8.30;99.90
19348;DHT22;9810;52.480;9.806;2023-02-12T10:26:32;8.40;99.90
19348;DHT22;9810;52.480;9.806;2023-02-12T10:29:11;8.40;99.90
19348;DHT22;9810;52.480;9.806;2023-02-12T10:31:42;8.60;99.90
19348;DHT22;9810;52.480;9.806;2023-02-12T10:34:15;8.60;99.90
19348;DHT22;9810;52.480;9.806;2023-02-12T10:36:45;8.70;99.90
19348;DHT22;9810;52.480;9.806;2023-02-12T10:39:18;8.80;99.90
19348;DHT22;9810;52.480;9.806;2023-02-12T10:42:02;8.90;99.90
19348;DHT22;9810;52.480;9.806;2023-02-12T10:44:35;9.00;99.90
19348;DHT22;9810;52.480;9.806;2023-02-12T10:47:03;9.00;99.90
19348;DHT22;9810;52.480;9.806;2023-02-12T10:49:31;9.10;99.90
19348;DHT22;9810;52.480;9.806;2023-02-12T10:52:11;9.20;99.90
19348;DHT22;9810;52.480;9.806;2023-02-12T10:54:43;9.10;99.90
19348;DHT22;9810;52.480;9.806;2023-02-12T10:57:17;9.20;99.90
19348;DHT22;9810;52.480;9.806;2023-02-12T10:59:48;9.10;99.90
19348;DHT22;9810;52.480;9.806;2023-02-12T11:02:24;9.00;99.90
19348;DHT22;9810;52.480;9.806;2023-02-12T11:04:53;9.10;99.90
19348;DHT22;9810;52.480;9.806;2023-02-12T11:07:22;8.80;99.90
19348;DHT22;9810;52.480;9.806;2023-02-12T11:09:51;8.90;99.90
19348;DHT22;9810;52.480;9.806;2023-02-12T11:12:23;9.00;99.90
19348;DHT22;9810;52.480;9.806;2023-02-12T11:14:56;9.10;99.90
19348;DHT22;9810;52.480;9.806;2023-02-12T11:17:26;9.10;99.90
19348;DHT22;9810;52.480;9.806;2023-02-12T11:20:20;9.20;99.90
19348;DHT22;9810;52.480;9.806;2023-02-12T11:22:51;9.20;99.90
19348;DHT22;9810;52.480;9.806;2023-02-12T11:25:19;9.20;99.90
19348;DHT22;9810;52.480;9.806;2023-02-12T11:27:59;9.30;99.90
19348;DHT22;9810;52.480;9.806;2023-02-12T11:30:29;9.40;99.90
19348;DHT22;9810;52.480;9.806;2023-02-12T11:33:14;9.60;99.90
19348;DHT22;9810;52.480;9.806;2023-02-12T11:35:51;9.60;99.90
19348;DHT22;9810;52.480;9.806;2023-02-12T11:38:35;9.60;99.90
19348;DHT22;9810;52.480;9.806;2023-02-12T11:41:08;9.50;99.90
19348;DHT22;9810;52.480;9.806;2023-02-12T11:43:45;9.50;99.90
19348;DHT22;9810;52.480;9.806;2023-02-12T11:46:19;9.60;99.90
19348;DHT22;9810;52.480;9.806;2023-02-12T11:48:47;9.60;99.90
19348;DHT22;9810;52.480;9.806;2023-02-12T11:51:19;9.60;99.90
19348;DHT22;9810;52.480;9.806;2023-02-12T11:53:49;9.60;99.90
19348;DHT22;9810;52.480;9.806;2023-02-12T11:56:18;9.70;99.90
19348;DHT22;9810;52.480;9.806;2023-02-12T11:58:46;9.70;99.90
19348;DHT22;9810;52.480;9.806;2023-02-12T12:01:18;9.50;99.90
19348;DHT22;9810;52.480;9.806;2023-02-12T12:03:54;9.60;99.90
19348;DHT22;9810;52.480;9.806;2023-02-12T12:06:30;9.60;99.90
19348;DHT22;9810;52.480;9.806;2023-02-12T12:09:06;9.60;99.90
19348;DHT22;9810;52.480;9.806;2023-02-12T12:11:46;9.60;99.90
19348;DHT22;9810;52.480;9.806;2023-02-12T12:14:19;9.60;99.90
19348;DHT22;9810;52.480;9.806;2023-02-12T12:16:54;9.60;99.90
19348;DHT22;9810;52.480;9.806;2023-02-12T12:19:45;9.50;99.90
19348;DHT22;9810;52.480;9.806;2023-02-12T12:22:37;9.50;99.90
19348;DHT22;9810;52.480;9.806;2023-02-12T12:25:12;9.30;99.90
19348;DHT22;9810;52.480;9.806;2023-02-12T12:27:49;9.40;99.90
19348;DHT22;9810;52.480;9.806;2023-02-12T12:30:49;9.30;99.90
19348;DHT22;9810;52.480;9.806;2023-02-12T12:33:25;9.30;99.90
19348;DHT22;9810;52.480;9.806;2023-02-12T12:36:07;9.30;99.90
19348;DHT22;9810;52.480;9.806;2023-02-12T12:38:45;9.40;99.90
19348;DHT22;9810;52.480;9.806;2023-02-12T12:41:23;9.50;99.90
19348;DHT22;9810;52.480;9.806;2023-02-12T12:44:08;9.50;99.90
19348;DHT22;9810;52.480;9.806;2023-02-12T12:46:51;9.50;99.90
19348;DHT22;9810;52.480;9.806;2023-02-12T12:49:51;9.30;99.90
19348;DHT22;9810;52.480;9.806;2023-02-12T12:52:41;9.40;99.90
19348;DHT22;9810;52.480;9.806;2023-02-12T12:55:43;9.30;99.90
19348;DHT22;9810;52.480;9.806;2023-02-12T12:58:21;9.40;99.90
19348;DHT22;9810;52.480;9.806;2023-02-12T13:01:09;9.40;99.90
19348;DHT22;9810;52.480;9.806;2023-02-12T13:06:55;9.50;99.90
19348;DHT22;9810;52.480;9.806;2023-02-12T13:09:46;9.40;99.90
19348;DHT22;9810;52.480;9.806;2023-02-12T13:12:32;9.40;99.90
19348;DHT22;9810;52.480;9.806;2023-02-12T13:15:13;9.40;99.90
19348;DHT22;9810;52.480;9.806;2023-02-12T13:17:50;9.50;99.90
19348;DHT22;9810;52.480;9.806;2023-02-12T13:20:33;9.50;99.90
19348;DHT22;9810;52.480;9.806;2023-02-12T13:23:11;9.30;99.90
19348;DHT22;9810;52.480;9.806;2023-02-12T13:25:46;9.30;99.90
19348;DHT22;9810;52.480;9.806;2023-02-12T13:28:24;9.30;99.90
19348;DHT22;9810;52.480;9.806;2023-02-12T13:30:56;9.20;99.90
19348;DHT22;9810;52.480;9.806;2023-02-12T13:33:27;9.20;99.90
19348;DHT22;9810;52.480;9.806;2023-02-12T13:35:58;9.20;99.90
19348;DHT22;9810;52.480;9.806;2023-02-12T13:38:31;9.10;99.90
19348;DHT22;9810;52.480;9.806;2023-02-12T13:41:03;9.20;99.90
19348;DHT22;9810;52.480;9.806;2023-02-12T13:43:45;9.10;99.90
19348;DHT22;9810;52.480;9.806;2023-02-12T13:46:22;9.20;99.90
19348;DHT22;9810;52.480;9.806;2023-02-12T13:48:56;9.30;99.90
19348;DHT22;9810;52.480;9.806;2023-02-12T13:51:35;9.30;99.90
19348;DHT22;9810;52.480;9.806;2023-02-12T13:54:17;9.30;99.90
19348;DHT22;9810;52.480;9.806;2023-02-12T13:56:47;9.30;99.90
19348;DHT22;9810;52.480;9.806;2023-02-12T13:59:47;9.30;99.90
19348;DHT22;9810;52.480;9.806;2023-02-12T14:05:30;9.30;99.90
19348;DHT22;9810;52.480;9.806;2023-02-12T14:08:00;9.30;99.90
19348;DHT22;9810;52.480;9.806;2023-02-12T14:10:34;9.30;99.90
19348;DHT22;9810;52.480;9.806;2023-02-12T14:13:16;9.30;99.90
19348;DHT22;9810;52.480;9.806;2023-02-12T14:15:46;9.30;99.90
19348;DHT22;9810;52.480;9.806;2023-02-12T14:18:28;9.30;99.90
19348;DHT22;9810;52.480;9.806;2023-02-12T14:27:26;9.30;99.90
19348;DHT22;9810;52.480;9.806;2023-02-12T14:33:21;9.20;99.90
19348;DHT22;9810;52.480;9.806;2023-02-12T14:38:57;9.20;99.90
19348;DHT22;9810;52.480;9.806;2023-02-12T14:41:30;9.10;99.90
19348;DHT22;9810;52.480;9.806;2023-02-12T14:50:10;9.00;99.90
19348;DHT22;9810;52.480;9.806;2023-02-12T14:52:39;8.90;99.90
19348;DHT22;9810;52.480;9.806;2023-02-12T14:55:24;9.00;99.90
19348;DHT22;9810;52.480;9.806;2023-02-12T14:57:57;9.00;99.90
19348;DHT22;9810;52.480;9.806;2023-02-12T15:00:29;9.00;99.90
19348;DHT22;9810;52.480;9.806;2023-02-12T15:13:38;9.00;99.90
19348;DHT22;9810;52.480;9.806;2023-02-12T15:16:13;9.10;99.90
19348;DHT22;9810;52.480;9.806;2023-02-12T15:18:52;9.00;99.90
19348;DHT22;9810;52.480;9.806;2023-02-12T15:21:49;8.90;99.90
19348;DHT22;9810;52.480;9.806;2023-02-12T15:24:29;9.00;99.90
19348;DHT22;9810;52.480;9.806;2023-02-12T15:26:59;8.90;99.90
19348;DHT22;9810;52.480;9.806;2023-02-12T15:29:57;9.00;99.90
19348;DHT22;9810;52.480;9.806;2023-02-12T15:32:27;8.90;99.90
19348;DHT22;9810;52.480;9.806;2023-02-12T15:35:00;8.90;99.90
19348;DHT22;9810;52.480;9.806;2023-02-12T15:37:50;8.90;99.90
19348;DHT22;9810;52.480;9.806;2023-02-12T15:57:51;8.80;99.90
19348;DHT22;9810;52.480;9.806;2023-02-12T16:03:47;8.80;99.90
19348;DHT22;9810;52.480;9.806;2023-02-12T16:09:56;8.80;99.90
19348;DHT22;9810;52.480;9.806;2023-02-12T16:12:29;8.80;99.90
19348;DHT22;9810;52.480;9.806;2023-02-12T16:22:19;8.70;99.90
19348;DHT22;9810;52.480;9.806;2023-02-12T16:24:55;8.70;99.90
19348;DHT22;9810;52.480;9.806;2023-02-12T16:27:26;8.70;99.90
19348;DHT22;9810;52.480;9.806;2023-02-12T16:29:56;8.70;99.90
19348;DHT22;9810;52.480;9.806;2023-02-12T16:32:28;8.70;99.90
19348;DHT22;9810;52.480;9.806;2023-02-12T16:35:01;8.80;99.90
19348;DHT22;9810;52.480;9.806;2023-02-12T16:44:36;8.80;99.90
19348;DHT22;9810;52.480;9.806;2023-02-12T16:47:04;8.70;99.90
19348;DHT22;9810;52.480;9.806;2023-02-12T16:50:13;8.70;99.90
19348;DHT22;9810;52.480;9.806;2023-02-12T16:52:42;8.70;99.90
19348;DHT22;9810;52.480;9.806;2023-02-12T16:55:38;8.70;99.90
19348;DHT22;9810;52.480;9.806;2023-02-12T17:01:36;8.60;99.90
19348;DHT22;9810;52.480;9.806;2023-02-12T17:04:06;8.60;99.90
19348;DHT22;9810;52.480;9.806;2023-02-12T17:06:34;8.60;99.90
19348;DHT22;9810;52.480;9.806;2023-02-12T17:09:01;8.60;99.90
19348;DHT22;9810;52.480;9.806;2023-02-12T17:11:28;8.60;99.90
19348;DHT22;9810;52.480;9.806;2023-02-12T17:13:56;8.60;99.90
19348;DHT22;9810;52.480;9.806;2023-02-12T17:16:24;8.50;99.90
19348;DHT22;9810;52.480;9.806;2023-02-12T17:19:01;8.40;99.90
19348;DHT22;9810;52.480;9.806;2023-02-12T17:21:30;8.40;99.90
19348;DHT22;9810;52.480;9.806;2023-02-12T17:24:02;8.20;99.90
19348;DHT22;9810;52.480;9.806;2023-02-12T17:26:30;8.20;99.90
19348;DHT22;9810;52.480;9.806;2023-02-12T17:28:59;8.10;99.90
19348;DHT22;9810;52.480;9.806;2023-02-12T17:31:30;8.10;99.90
19348;DHT22;9810;52.480;9.806;2023-02-12T17:33:57;8.10;99.90
19348;DHT22;9810;52.480;9.806;2023-02-12T17:36:29;8.20;99.90
19348;DHT22;9810;52.480;9.806;2023-02-12T17:38:56;8.10;99.90
19348;DHT22;9810;52.480;9.806;2023-02-12T17:41:23;8.30;99.90
19348;DHT22;9810;52.480;9.806;2023-02-12T17:43:51;8.30;99.90
19348;DHT22;9810;52.480;9.806;2023-02-12T17:46:20;8.40;99.90
19348;DHT22;9810;52.480;9.806;2023-02-12T17:48:48;8.40;99.90
19348;DHT22;9810;52.480;9.806;2023-02-12T17:51:16;8.40;99.90
19348;DHT22;9810;52.480;9.806;2023-02-12T17:53:44;8.50;99.90
19348;DHT22;9810;52.480;9.806;2023-02-12T17:56:13;8.60;99.90